sensor_id;sensor_type;location;lat;lon;timestamp;temperature;humidity
5059;DHT22;2548;52.050;11.036;2022-12-18T00:01:39;-7.30;99.90
5059;DHT22;2548;52.050;11.036;2022-12-18T00:04:11;-7.40;99.90
5059;DHT22;2548;52.050;11.036;2022-12-18T00:06:42;-7.40;99.90
5059;DHT22;2548;52.050;11.036;2022-12-18T00:09:09;-7.50;99.90
5059;DHT22;2548;52.050;11.036;2022-12-18T00:11:37;-7.40;99.90
5059;DHT22;2548;52.050;11.036;2022-12-18T00:14:06;-7.40;99.90
5059;DHT22;2548;52.050;11.036;2022-12-18T00:16:33;-7.30;99.90
5059;DHT22;2548;52.050;11.036;2022-12-18T00:19:05;-7.30;99.90
5059;DHT22;2548;52.050;11.036;2022-12-18T00:21:33;-7.40;99.90
5059;DHT22;2548;52.050;11.036;2022-12-18T00:24:01;-7.40;99.90
5059;DHT22;2548;52.050;11.036;2022-12-18T00:26:30;-7.50;99.90
5059;DHT22;2548;52.050;11.036;2022-12-18T00:29:02;-7.60;99.90
5059;DHT22;2548;52.050;11.036;2022-12-18T00:31:32;-7.60;99.90
5059;DHT22;2548;52.050;11.036;2022-12-18T00:34:00;-7.60;99.90
5059;DHT22;2548;52.050;11.036;2022-12-18T00:36:30;-7.70;99.90
5059;DHT22;2548;52.050;11.036;2022-12-18T00:38:59;-7.60;99.90
5059;DHT22;2548;52.050;11.036;2022-12-18T00:41:27;-7.70;99.90
5059;DHT22;2548;52.050;11.036;2022-12-18T00:44:20;-7.70;99.90
5059;DHT22;2548;52.050;11.036;2022-12-18T00:46:49;-7.70;99.90
5059;DHT22;2548;52.050;11.036;2022-12-18T00:49:17;-7.60;99.90
5059;DHT22;2548;52.050;11.036;2022-12-18T00:51:45;-7.60;99.90
5059;DHT22;2548;52.050;11.036;2022-12-18T00:54:13;-7.60;99.90
5059;DHT22;2548;52.050;11.036;2022-12-18T00:56:41;-7.60;99.90
5059;DHT22;2548;52.050;11.036;2022-12-18T00:59:08;-7.70;99.90
5059;DHT22;2548;52.050;11.036;2022-12-18T01:01:38;-7.70;99.90
5059;DHT22;2548;52.050;11.036;2022-12-18T01:04:07;-7.80;99.90
5059;DHT22;2548;52.050;11.036;2022-12-18T01:06:35;-7.80;99.90
5059;DHT22;2548;52.050;11.036;2022-12-18T01:09:03;-7.90;99.90
5059;DHT22;2548;52.050;11.036;2022-12-18T01:11:30;-7.90;99.90
5059;DHT22;2548;52.050;11.036;2022-12-18T01:14:01;-7.90;99.90
5059;DHT22;2548;52.050;11.036;2022-12-18T01:16:28;-8.00;99.90
5059;DHT22;2548;52.050;11.036;2022-12-18T01:18:56;-8.00;99.90
5059;DHT22;2548;52.050;11.036;2022-12-18T01:21:27;-8.00;99.90
5059;DHT22;2548;52.050;11.036;2022-12-18T01:23:56;-8.00;99.90
5059;DHT22;2548;52.050;11.036;2022-12-18T01:26:24;-8.00;99.90
5059;DHT22;2548;52.050;11.036;2022-12-18T01:28:54;-7.90;99.90
5059;DHT22;2548;52.050;11.036;2022-12-18T01:31:25;-7.90;99.90
5059;DHT22;2548;52.050;11.036;2022-12-18T01:33:54;-8.00;99.90
5059;DHT22;2548;52.050;11.036;2022-12-18T01:36:24;-8.00;99.90
5059;DHT22;2548;52.050;11.036;2022-12-18T01:38:53;-8.00;99.90
5059;DHT22;2548;52.050;11.036;2022-12-18T01:41:23;-8.00;99.90
5059;DHT22;2548;52.050;11.036;2022-12-18T01:43:52;-8.00;99.90
5059;DHT22;2548;52.050;11.036;2022-12-18T01:46:22;-8.00;99.90
5059;DHT22;2548;52.050;11.036;2022-12-18T01:48:57;-8.10;99.90
5059;DHT22;2548;52.050;11.036;2022-12-18T01:51:27;-8.20;99.90
5059;DHT22;2548;52.050;11.036;2022-12-18T01:53:56;-8.10;99.90
5059;DHT22;2548;52.050;11.036;2022-12-18T01:56:24;-8.10;99.90
5059;DHT22;2548;52.050;11.036;2022-12-18T01:58:55;-8.10;99.90
5059;DHT22;2548;52.050;11.036;2022-12-18T02:01:25;-8.20;99.90
5059;DHT22;2548;52.050;11.036;2022-12-18T02:03:53;-8.20;99.90
5059;DHT22;2548;52.050;11.036;2022-12-18T02:06:27;-8.20;99.90
5059;DHT22;2548;52.050;11.036;2022-12-18T02:09:07;-8.20;99.90
5059;DHT22;2548;52.050;11.036;2022-12-18T02:11:42;-8.20;99.90
5059;DHT22;2548;52.050;11.036;2022-12-18T02:14:20;-8.30;99.90
5059;DHT22;2548;52.050;11.036;2022-12-18T02:16:59;-8.30;99.90
5059;DHT22;2548;52.050;11.036;2022-12-18T02:19:39;-8.30;99.90
5059;DHT22;2548;52.050;11.036;2022-12-18T02:22:21;-8.20;99.90
5059;DHT22;2548;52.050;11.036;2022-12-18T02:25:05;-8.20;99.90
5059;DHT22;2548;52.050;11.036;2022-12-18T02:27:40;-8.20;99.90
5059;DHT22;2548;52.050;11.036;2022-12-18T02:30:09;-8.10;99.90
5059;DHT22;2548;52.050;11.036;2022-12-18T02:32:40;-8.20;99.90
5059;DHT22;2548;52.050;11.036;2022-12-18T02:35:12;-8.20;99.90
5059;DHT22;2548;52.050;11.036;2022-12-18T02:37:43;-8.20;99.90
5059;DHT22;2548;52.050;11.036;2022-12-18T02:40:14;-8.20;99.90
5059;DHT22;2548;52.050;11.036;2022-12-18T02:42:45;-8.20;99.90
5059;DHT22;2548;52.050;11.036;2022-12-18T02:45:16;-8.30;99.90
5059;DHT22;2548;52.050;11.036;2022-12-18T02:47:46;-8.30;99.90
5059;DHT22;2548;52.050;11.036;2022-12-18T02:50:19;-8.30;99.90
5059;DHT22;2548;52.050;11.036;2022-12-18T02:53:01;-8.40;99.90
5059;DHT22;2548;52.050;11.036;2022-12-18T02:55:44;-8.40;99.90
5059;DHT22;2548;52.050;11.036;2022-12-18T02:58:23;-8.30;99.90
5059;DHT22;2548;52.050;11.036;2022-12-18T03:01:02;-8.40;99.90
5059;DHT22;2548;52.050;11.036;2022-12-18T03:03:33;-8.40;99.90
5059;DHT22;2548;52.050;11.036;2022-12-18T03:06:06;-8.40;99.90
5059;DHT22;2548;52.050;11.036;2022-12-18T03:08:38;-8.40;99.90
5059;DHT22;2548;52.050;11.036;2022-12-18T03:11:10;-8.40;99.90
5059;DHT22;2548;52.050;11.036;2022-12-18T03:13:44;-8.40;99.90
5059;DHT22;2548;52.050;11.036;2022-12-18T03:16:19;-8.40;99.90
5059;DHT22;2548;52.050;11.036;2022-12-18T03:18:52;-8.30;99.90
5059;DHT22;2548;52.050;11.036;2022-12-18T03:21:28;-8.30;99.90
5059;DHT22;2548;52.050;11.036;2022-12-18T03:23:58;-8.30;99.90
5059;DHT22;2548;52.050;11.036;2022-12-18T03:26:28;-8.30;99.90
5059;DHT22;2548;52.050;11.036;2022-12-18T03:29:04;-8.30;99.90
5059;DHT22;2548;52.050;11.036;2022-12-18T03:31:40;-8.30;99.90
5059;DHT22;2548;52.050;11.036;2022-12-18T03:34:12;-8.30;99.90
5059;DHT22;2548;52.050;11.036;2022-12-18T03:36:44;-8.30;99.90
5059;DHT22;2548;52.050;11.036;2022-12-18T03:39:13;-8.30;99.90
5059;DHT22;2548;52.050;11.036;2022-12-18T03:41:47;-8.30;99.90
5059;DHT22;2548;52.050;11.036;2022-12-18T03:44:39;-8.30;99.90
5059;DHT22;2548;52.050;11.036;2022-12-18T03:47:10;-8.40;99.90
5059;DHT22;2548;52.050;11.036;2022-12-18T03:49:46;-8.40;99.90
5059;DHT22;2548;52.050;11.036;2022-12-18T03:52:20;-8.40;99.90
5059;DHT22;2548;52.050;11.036;2022-12-18T03:54:49;-8.40;99.90
5059;DHT22;2548;52.050;11.036;2022-12-18T03:57:20;-8.50;99.90
5059;DHT22;2548;52.050;11.036;2022-12-18T03:59:55;-8.50;99.90
5059;DHT22;2548;52.050;11.036;2022-12-18T04:02:29;-8.40;99.90
5059;DHT22;2548;52.050;11.036;2022-12-18T04:05:02;-8.50;99.90
5059;DHT22;2548;52.050;11.036;2022-12-18T04:07:33;-8.50;99.90
5059;DHT22;2548;52.050;11.036;2022-12-18T04:10:02;-8.40;99.90
5059;DHT22;2548;52.050;11.036;2022-12-18T04:12:31;-8.50;99.90
5059;DHT22;2548;52.050;11.036;2022-12-18T04:15:00;-8.60;99.90
5059;DHT22;2548;52.050;11.036;2022-12-18T04:17:28;-8.60;99.90
5059;DHT22;2548;52.050;11.036;2022-12-18T04:19:56;-8.60;99.90
5059;DHT22;2548;52.050;11.036;2022-12-18T04:22:25;-8.70;99.90
5059;DHT22;2548;52.050;11.036;2022-12-18T04:24:58;-8.60;99.90
5059;DHT22;2548;52.050;11.036;2022-12-18T04:27:32;-8.70;99.90
5059;DHT22;2548;52.050;11.036;2022-12-18T04:30:01;-8.70;99.90
5059;DHT22;2548;52.050;11.036;2022-12-18T04:32:29;-8.80;99.90
5059;DHT22;2548;52.050;11.036;2022-12-18T04:34:57;-8.80;99.90
5059;DHT22;2548;52.050;11.036;2022-12-18T04:37:24;-8.80;99.90
5059;DHT22;2548;52.050;11.036;2022-12-18T04:39:51;-8.80;99.90
5059;DHT22;2548;52.050;11.036;2022-12-18T04:42:26;-8.90;99.90
5059;DHT22;2548;52.050;11.036;2022-12-18T04:44:54;-8.90;99.90
5059;DHT22;2548;52.050;11.036;2022-12-18T04:47:22;-9.00;99.90
5059;DHT22;2548;52.050;11.036;2022-12-18T04:49:50;-9.00;99.90
5059;DHT22;2548;52.050;11.036;2022-12-18T04:52:17;-9.10;99.90
5059;DHT22;2548;52.050;11.036;2022-12-18T04:54:45;-9.10;99.90
5059;DHT22;2548;52.050;11.036;2022-12-18T04:57:12;-9.10;99.90
5059;DHT22;2548;52.050;11.036;2022-12-18T04:59:40;-9.00;99.90
5059;DHT22;2548;52.050;11.036;2022-12-18T05:02:07;-9.00;99.90
5059;DHT22;2548;52.050;11.036;2022-12-18T05:04:36;-9.00;99.90
5059;DHT22;2548;52.050;11.036;2022-12-18T05:07:03;-9.00;99.90
5059;DHT22;2548;52.050;11.036;2022-12-18T05:09:31;-9.10;99.90
5059;DHT22;2548;52.050;11.036;2022-12-18T05:11:58;-9.00;99.90
5059;DHT22;2548;52.050;11.036;2022-12-18T05:14:26;-9.00;99.90
5059;DHT22;2548;52.050;11.036;2022-12-18T05:16:56;-9.00;99.90
5059;DHT22;2548;52.050;11.036;2022-12-18T05:19:23;-9.10;99.90
5059;DHT22;2548;52.050;11.036;2022-12-18T05:21:52;-9.10;99.90
5059;DHT22;2548;52.050;11.036;2022-12-18T05:24:20;-9.10;99.90
5059;DHT22;2548;52.050;11.036;2022-12-18T05:26:47;-9.20;99.90
5059;DHT22;2548;52.050;11.036;2022-12-18T05:29:15;-9.10;99.90
5059;DHT22;2548;52.050;11.036;2022-12-18T05:31:42;-9.00;99.90
5059;DHT22;2548;52.050;11.036;2022-12-18T05:34:10;-9.10;99.90
5059;DHT22;2548;52.050;11.036;2022-12-18T05:36:37;-9.10;99.90
5059;DHT22;2548;52.050;11.036;2022-12-18T05:39:06;-9.10;99.90
5059;DHT22;2548;52.050;11.036;2022-12-18T05:41:33;-9.10;99.90
5059;DHT22;2548;52.050;11.036;2022-12-18T05:44:01;-9.10;99.90
5059;DHT22;2548;52.050;11.036;2022-12-18T05:46:28;-9.10;99.90
5059;DHT22;2548;52.050;11.036;2022-12-18T05:48:59;-9.20;99.90
5059;DHT22;2548;52.050;11.036;2022-12-18T05:51:27;-9.20;99.90
5059;DHT22;2548;52.050;11.036;2022-12-18T05:53:54;-9.20;99.90
5059;DHT22;2548;52.050;11.036;2022-12-18T05:56:23;-9.20;99.90
5059;DHT22;2548;52.050;11.036;2022-12-18T05:58:52;-9.20;99.90
5059;DHT22;2548;52.050;11.036;2022-12-18T06:01:23;-9.30;99.90
5059;DHT22;2548;52.050;11.036;2022-12-18T06:03:50;-9.30;99.90
5059;DHT22;2548;52.050;11.036;2022-12-18T06:06:19;-9.20;99.90
5059;DHT22;2548;52.050;11.036;2022-12-18T06:08:47;-9.20;99.90
5059;DHT22;2548;52.050;11.036;2022-12-18T06:11:18;-9.20;99.90
5059;DHT22;2548;52.050;11.036;2022-12-18T06:13:49;-9.20;99.90
5059;DHT22;2548;52.050;11.036;2022-12-18T06:16:17;-9.20;99.90
5059;DHT22;2548;52.050;11.036;2022-12-18T06:18:44;-9.20;99.90
5059;DHT22;2548;52.050;11.036;2022-12-18T06:21:12;-9.20;99.90
5059;DHT22;2548;52.050;11.036;2022-12-18T06:23:39;-9.20;99.90
5059;DHT22;2548;52.050;11.036;2022-12-18T06:26:09;-9.20;99.90
5059;DHT22;2548;52.050;11.036;2022-12-18T06:28:38;-9.20;99.90
5059;DHT22;2548;52.050;11.036;2022-12-18T06:31:07;-9.20;99.90
5059;DHT22;2548;52.050;11.036;2022-12-18T06:33:35;-9.20;99.90
5059;DHT22;2548;52.050;11.036;2022-12-18T06:36:04;-9.20;99.90
5059;DHT22;2548;52.050;11.036;2022-12-18T06:38:32;-9.20;99.90
5059;DHT22;2548;52.050;11.036;2022-12-18T06:40:59;-9.10;99.90
5059;DHT22;2548;52.050;11.036;2022-12-18T06:43:27;-9.10;99.90
5059;DHT22;2548;52.050;11.036;2022-12-18T06:46:00;-9.10;99.90
5059;DHT22;2548;52.050;11.036;2022-12-18T06:48:30;-9.10;99.90
5059;DHT22;2548;52.050;11.036;2022-12-18T06:50:58;-9.10;99.90
5059;DHT22;2548;52.050;11.036;2022-12-18T06:53:25;-9.10;99.90
5059;DHT22;2548;52.050;11.036;2022-12-18T06:55:59;-9.20;99.90
5059;DHT22;2548;52.050;11.036;2022-12-18T06:58:27;-9.30;99.90
5059;DHT22;2548;52.050;11.036;2022-12-18T07:00:59;-9.30;99.90
5059;DHT22;2548;52.050;11.036;2022-12-18T07:03:29;-9.20;99.90
5059;DHT22;2548;52.050;11.036;2022-12-18T07:05:56;-9.20;99.90
5059;DHT22;2548;52.050;11.036;2022-12-18T07:08:24;-9.20;99.90
5059;DHT22;2548;52.050;11.036;2022-12-18T07:10:52;-9.20;99.90
5059;DHT22;2548;52.050;11.036;2022-12-18T07:13:20;-9.20;99.90
5059;DHT22;2548;52.050;11.036;2022-12-18T07:15:47;-9.20;99.90
5059;DHT22;2548;52.050;11.036;2022-12-18T07:18:15;-9.10;99.90
5059;DHT22;2548;52.050;11.036;2022-12-18T07:20:44;-9.10;99.90
5059;DHT22;2548;52.050;11.036;2022-12-18T07:23:11;-9.10;99.90
5059;DHT22;2548;52.050;11.036;2022-12-18T07:25:39;-9.10;99.90
5059;DHT22;2548;52.050;11.036;2022-12-18T07:28:07;-9.10;99.90
5059;DHT22;2548;52.050;11.036;2022-12-18T07:30:37;-9.20;99.90
5059;DHT22;2548;52.050;11.036;2022-12-18T07:33:04;-9.20;99.90
5059;DHT22;2548;52.050;11.036;2022-12-18T07:35:32;-9.20;99.90
5059;DHT22;2548;52.050;11.036;2022-12-18T07:38:04;-9.20;99.90
5059;DHT22;2548;52.050;11.036;2022-12-18T07:40:32;-9.20;99.90
5059;DHT22;2548;52.050;11.036;2022-12-18T07:42:59;-9.20;99.90
5059;DHT22;2548;52.050;11.036;2022-12-18T07:45:27;-9.30;99.90
5059;DHT22;2548;52.050;11.036;2022-12-18T07:47:56;-9.30;99.90
5059;DHT22;2548;52.050;11.036;2022-12-18T07:50:24;-9.30;99.90
5059;DHT22;2548;52.050;11.036;2022-12-18T07:52:51;-9.30;99.90
5059;DHT22;2548;52.050;11.036;2022-12-18T07:55:20;-9.20;99.90
5059;DHT22;2548;52.050;11.036;2022-12-18T07:57:48;-9.20;99.90
5059;DHT22;2548;52.050;11.036;2022-12-18T08:00:16;-9.20;99.90
5059;DHT22;2548;52.050;11.036;2022-12-18T08:02:43;-9.10;99.90
5059;DHT22;2548;52.050;11.036;2022-12-18T08:05:11;-9.10;99.90
5059;DHT22;2548;52.050;11.036;2022-12-18T08:07:39;-9.10;99.90
5059;DHT22;2548;52.050;11.036;2022-12-18T08:10:07;-9.10;99.90
5059;DHT22;2548;52.050;11.036;2022-12-18T08:12:36;-9.00;99.90
5059;DHT22;2548;52.050;11.036;2022-12-18T08:15:05;-9.00;99.90
5059;DHT22;2548;52.050;11.036;2022-12-18T08:17:32;-9.00;99.90
5059;DHT22;2548;52.050;11.036;2022-12-18T08:20:00;-8.90;99.90
5059;DHT22;2548;52.050;11.036;2022-12-18T08:22:27;-8.90;99.90
5059;DHT22;2548;52.050;11.036;2022-12-18T08:24:55;-8.90;99.90
5059;DHT22;2548;52.050;11.036;2022-12-18T08:27:22;-8.80;99.90
5059;DHT22;2548;52.050;11.036;2022-12-18T08:29:51;-8.70;99.90
5059;DHT22;2548;52.050;11.036;2022-12-18T08:32:18;-8.70;99.90
5059;DHT22;2548;52.050;11.036;2022-12-18T08:34:46;-8.60;99.90
5059;DHT22;2548;52.050;11.036;2022-12-18T08:37:13;-8.60;99.90
5059;DHT22;2548;52.050;11.036;2022-12-18T08:39:41;-8.60;99.90
5059;DHT22;2548;52.050;11.036;2022-12-18T08:42:08;-8.60;99.90
5059;DHT22;2548;52.050;11.036;2022-12-18T08:44:54;-8.50;99.90
5059;DHT22;2548;52.050;11.036;2022-12-18T08:47:22;-8.40;99.90
5059;DHT22;2548;52.050;11.036;2022-12-18T08:49:49;-8.30;99.90
5059;DHT22;2548;52.050;11.036;2022-12-18T08:52:17;-8.30;99.90
5059;DHT22;2548;52.050;11.036;2022-12-18T08:54:44;-8.30;99.90
5059;DHT22;2548;52.050;11.036;2022-12-18T08:57:12;-8.40;99.90
5059;DHT22;2548;52.050;11.036;2022-12-18T08:59:39;-8.30;99.90
5059;DHT22;2548;52.050;11.036;2022-12-18T09:02:10;-8.30;99.90
5059;DHT22;2548;52.050;11.036;2022-12-18T09:04:38;-8.30;99.90
5059;DHT22;2548;52.050;11.036;2022-12-18T09:07:05;-8.30;99.90
5059;DHT22;2548;52.050;11.036;2022-12-18T09:09:33;-8.20;99.90
5059;DHT22;2548;52.050;11.036;2022-12-18T09:12:00;-8.10;99.90
5059;DHT22;2548;52.050;11.036;2022-12-18T09:14:28;-8.00;99.90
5059;DHT22;2548;52.050;11.036;2022-12-18T09:16:55;-8.00;99.90
5059;DHT22;2548;52.050;11.036;2022-12-18T09:19:24;-7.90;99.90
5059;DHT22;2548;52.050;11.036;2022-12-18T09:21:52;-7.80;99.90
5059;DHT22;2548;52.050;11.036;2022-12-18T09:24:22;-7.80;99.90
5059;DHT22;2548;52.050;11.036;2022-12-18T09:26:53;-7.70;99.90
5059;DHT22;2548;52.050;11.036;2022-12-18T09:29:21;-7.70;99.90
5059;DHT22;2548;52.050;11.036;2022-12-18T09:31:48;-7.60;99.90
5059;DHT22;2548;52.050;11.036;2022-12-18T09:34:16;-7.50;99.90
5059;DHT22;2548;52.050;11.036;2022-12-18T09:36:45;-7.40;99.90
5059;DHT22;2548;52.050;11.036;2022-12-18T09:39:13;-7.30;99.90
5059;DHT22;2548;52.050;11.036;2022-12-18T09:41:45;-7.20;99.90
5059;DHT22;2548;52.050;11.036;2022-12-18T09:44:18;-7.10;99.90
5059;DHT22;2548;52.050;11.036;2022-12-18T09:46:55;-7.10;99.90
5059;DHT22;2548;52.050;11.036;2022-12-18T09:49:28;-7.00;99.90
5059;DHT22;2548;52.050;11.036;2022-12-18T09:52:02;-7.00;99.90
5059;DHT22;2548;52.050;11.036;2022-12-18T09:54:35;-6.90;99.90
5059;DHT22;2548;52.050;11.036;2022-12-18T09:57:03;-6.90;99.90
5059;DHT22;2548;52.050;11.036;2022-12-18T09:59:35;-6.80;99.90
5059;DHT22;2548;52.050;11.036;2022-12-18T10:02:14;-6.70;99.90
5059;DHT22;2548;52.050;11.036;2022-12-18T10:04:41;-6.60;99.90
5059;DHT22;2548;52.050;11.036;2022-12-18T10:07:15;-6.50;99.90
5059;DHT22;2548;52.050;11.036;2022-12-18T10:09:51;-6.40;99.90
5059;DHT22;2548;52.050;11.036;2022-12-18T10:12:23;-6.40;99.90
5059;DHT22;2548;52.050;11.036;2022-12-18T10:14:56;-6.40;99.90
5059;DHT22;2548;52.050;11.036;2022-12-18T10:17:32;-6.30;99.90
5059;DHT22;2548;52.050;11.036;2022-12-18T10:20:04;-6.20;99.90
5059;DHT22;2548;52.050;11.036;2022-12-18T10:22:43;-6.20;99.90
5059;DHT22;2548;52.050;11.036;2022-12-18T10:25:20;-6.10;99.90
5059;DHT22;2548;52.050;11.036;2022-12-18T10:27:52;-6.00;99.90
5059;DHT22;2548;52.050;11.036;2022-12-18T10:30:22;-5.90;99.90
5059;DHT22;2548;52.050;11.036;2022-12-18T10:32:50;-5.90;99.90
5059;DHT22;2548;52.050;11.036;2022-12-18T10:35:20;-5.80;99.90
5059;DHT22;2548;52.050;11.036;2022-12-18T10:38:04;-5.70;99.90
5059;DHT22;2548;52.050;11.036;2022-12-18T10:40:32;-5.60;99.90
5059;DHT22;2548;52.050;11.036;2022-12-18T10:43:11;-5.50;99.90
5059;DHT22;2548;52.050;11.036;2022-12-18T10:45:39;-5.40;99.90
5059;DHT22;2548;52.050;11.036;2022-12-18T10:48:18;-5.50;99.90
5059;DHT22;2548;52.050;11.036;2022-12-18T10:50:49;-5.50;99.90
5059;DHT22;2548;52.050;11.036;2022-12-18T10:53:21;-5.40;99.90
5059;DHT22;2548;52.050;11.036;2022-12-18T10:55:49;-5.40;99.90
5059;DHT22;2548;52.050;11.036;2022-12-18T10:58:24;-5.30;99.90
5059;DHT22;2548;52.050;11.036;2022-12-18T11:01:09;-5.20;99.90
5059;DHT22;2548;52.050;11.036;2022-12-18T11:03:38;-5.20;99.90
5059;DHT22;2548;52.050;11.036;2022-12-18T11:06:09;-5.10;99.90
5059;DHT22;2548;52.050;11.036;2022-12-18T11:08:39;-5.00;99.90
5059;DHT22;2548;52.050;11.036;2022-12-18T11:11:14;-5.00;99.90
5059;DHT22;2548;52.050;11.036;2022-12-18T11:13:55;-4.90;99.90
5059;DHT22;2548;52.050;11.036;2022-12-18T11:16:25;-4.90;99.90
5059;DHT22;2548;52.050;11.036;2022-12-18T11:18:52;-4.80;99.90
5059;DHT22;2548;52.050;11.036;2022-12-18T11:21:20;-4.70;99.90
5059;DHT22;2548;52.050;11.036;2022-12-18T11:23:50;-4.70;99.90
5059;DHT22;2548;52.050;11.036;2022-12-18T11:26:18;-4.70;99.90
5059;DHT22;2548;52.050;11.036;2022-12-18T11:28:49;-4.70;99.90
5059;DHT22;2548;52.050;11.036;2022-12-18T11:31:23;-4.70;99.90
5059;DHT22;2548;52.050;11.036;2022-12-18T11:33:56;-4.70;99.90
5059;DHT22;2548;52.050;11.036;2022-12-18T11:36:26;-4.70;99.90
5059;DHT22;2548;52.050;11.036;2022-12-18T11:38:59;-4.60;99.90
5059;DHT22;2548;52.050;11.036;2022-12-18T11:41:33;-4.50;99.90
5059;DHT22;2548;52.050;11.036;2022-12-18T11:44:22;-4.50;99.90
5059;DHT22;2548;52.050;11.036;2022-12-18T11:46:56;-4.40;99.90
5059;DHT22;2548;52.050;11.036;2022-12-18T11:49:26;-4.30;99.90
5059;DHT22;2548;52.050;11.036;2022-12-18T11:52:00;-4.20;99.90
5059;DHT22;2548;52.050;11.036;2022-12-18T11:54:32;-4.20;99.90
5059;DHT22;2548;52.050;11.036;2022-12-18T11:57:07;-4.20;99.90
5059;DHT22;2548;52.050;11.036;2022-12-18T11:59:43;-4.30;99.90
5059;DHT22;2548;52.050;11.036;2022-12-18T12:02:28;-4.30;99.90
5059;DHT22;2548;52.050;11.036;2022-12-18T12:05:20;-4.30;99.90
5059;DHT22;2548;52.050;11.036;2022-12-18T12:07:57;-4.30;99.90
5059;DHT22;2548;52.050;11.036;2022-12-18T12:10:35;-4.20;99.90
5059;DHT22;2548;52.050;11.036;2022-12-18T12:13:18;-4.20;99.90
5059;DHT22;2548;52.050;11.036;2022-12-18T12:15:55;-4.20;99.90
5059;DHT22;2548;52.050;11.036;2022-12-18T12:18:30;-4.10;99.90
5059;DHT22;2548;52.050;11.036;2022-12-18T12:21:05;-4.00;99.90
5059;DHT22;2548;52.050;11.036;2022-12-18T12:23:40;-4.00;99.90
5059;DHT22;2548;52.050;11.036;2022-12-18T12:26:13;-3.90;99.90
5059;DHT22;2548;52.050;11.036;2022-12-18T12:28:53;-3.90;99.90
5059;DHT22;2548;52.050;11.036;2022-12-18T12:31:33;-3.90;99.90
5059;DHT22;2548;52.050;11.036;2022-12-18T12:34:12;-3.90;99.90
5059;DHT22;2548;52.050;11.036;2022-12-18T12:36:57;-3.90;99.90
5059;DHT22;2548;52.050;11.036;2022-12-18T12:39:31;-3.90;99.90
5059;DHT22;2548;52.050;11.036;2022-12-18T12:42:02;-3.90;99.90
5059;DHT22;2548;52.050;11.036;2022-12-18T12:44:51;-3.90;99.90
5059;DHT22;2548;52.050;11.036;2022-12-18T12:47:23;-4.00;99.90
5059;DHT22;2548;52.050;11.036;2022-12-18T12:49:53;-4.00;99.90
5059;DHT22;2548;52.050;11.036;2022-12-18T12:52:28;-4.00;99.90
5059;DHT22;2548;52.050;11.036;2022-12-18T12:54:58;-4.10;99.90
5059;DHT22;2548;52.050;11.036;2022-12-18T12:57:33;-4.10;99.90
5059;DHT22;2548;52.050;11.036;2022-12-18T13:00:07;-4.20;99.90
5059;DHT22;2548;52.050;11.036;2022-12-18T13:02:42;-4.30;99.90
5059;DHT22;2548;52.050;11.036;2022-12-18T13:05:18;-4.40;99.90
5059;DHT22;2548;52.050;11.036;2022-12-18T13:07:51;-4.40;99.90
5059;DHT22;2548;52.050;11.036;2022-12-18T13:10:32;-4.50;99.90
5059;DHT22;2548;52.050;11.036;2022-12-18T13:13:02;-4.60;99.90
5059;DHT22;2548;52.050;11.036;2022-12-18T13:15:33;-4.70;99.90
5059;DHT22;2548;52.050;11.036;2022-12-18T13:21:12;-4.80;99.90
5059;DHT22;2548;52.050;11.036;2022-12-18T13:23:44;-4.90;99.90
5059;DHT22;2548;52.050;11.036;2022-12-18T13:26:31;-5.00;99.90
5059;DHT22;2548;52.050;11.036;2022-12-18T13:29:02;-5.00;99.90
5059;DHT22;2548;52.050;11.036;2022-12-18T13:34:35;-5.10;99.90
5059;DHT22;2548;52.050;11.036;2022-12-18T13:37:39;-5.10;99.90
5059;DHT22;2548;52.050;11.036;2022-12-18T13:43:23;-5.20;99.90
5059;DHT22;2548;52.050;11.036;2022-12-18T13:46:00;-5.20;99.90
5059;DHT22;2548;52.050;11.036;2022-12-18T13:48:30;-5.20;99.90
5059;DHT22;2548;52.050;11.036;2022-12-18T13:51:01;-5.20;99.90
5059;DHT22;2548;52.050;11.036;2022-12-18T13:53:33;-5.20;99.90
5059;DHT22;2548;52.050;11.036;2022-12-18T13:56:02;-5.20;99.90
5059;DHT22;2548;52.050;11.036;2022-12-18T13:58:30;-5.20;99.90
5059;DHT22;2548;52.050;11.036;2022-12-18T14:01:00;-5.20;99.90
5059;DHT22;2548;52.050;11.036;2022-12-18T14:03:30;-5.20;99.90
5059;DHT22;2548;52.050;11.036;2022-12-18T14:06:01;-5.20;99.90
5059;DHT22;2548;52.050;11.036;2022-12-18T14:08:34;-5.20;99.90
5059;DHT22;2548;52.050;11.036;2022-12-18T14:11:04;-5.20;99.90
5059;DHT22;2548;52.050;11.036;2022-12-18T14:13:36;-5.20;99.90
5059;DHT22;2548;52.050;11.036;2022-12-18T14:16:06;-5.30;99.90
5059;DHT22;2548;52.050;11.036;2022-12-18T14:18:42;-5.30;99.90
5059;DHT22;2548;52.050;11.036;2022-12-18T14:21:19;-5.30;99.90
5059;DHT22;2548;52.050;11.036;2022-12-18T14:23:48;-5.40;99.90
5059;DHT22;2548;52.050;11.036;2022-12-18T14:26:24;-5.40;99.90
5059;DHT22;2548;52.050;11.036;2022-12-18T14:28:54;-5.50;99.90
5059;DHT22;2548;52.050;11.036;2022-12-18T14:31:25;-5.50;99.90
5059;DHT22;2548;52.050;11.036;2022-12-18T14:33:54;-5.50;99.90
5059;DHT22;2548;52.050;11.036;2022-12-18T14:36:23;-5.50;99.90
5059;DHT22;2548;52.050;11.036;2022-12-18T14:38:52;-5.50;99.90
5059;DHT22;2548;52.050;11.036;2022-12-18T14:41:21;-5.60;99.90
5059;DHT22;2548;52.050;11.036;2022-12-18T14:43:50;-5.60;99.90
5059;DHT22;2548;52.050;11.036;2022-12-18T14:46:35;-5.60;99.90
5059;DHT22;2548;52.050;11.036;2022-12-18T14:49:05;-5.60;99.90
5059;DHT22;2548;52.050;11.036;2022-12-18T14:51:47;-5.70;99.90
5059;DHT22;2548;52.050;11.036;2022-12-18T14:54:17;-5.70;99.90
5059;DHT22;2548;52.050;11.036;2022-12-18T14:56:46;-5.70;99.90
5059;DHT22;2548;52.050;11.036;2022-12-18T14:59:16;-5.70;99.90
5059;DHT22;2548;52.050;11.036;2022-12-18T15:01:56;-5.80;99.90
5059;DHT22;2548;52.050;11.036;2022-12-18T15:04:26;-5.80;99.90
5059;DHT22;2548;52.050;11.036;2022-12-18T15:07:09;-5.80;99.90
5059;DHT22;2548;52.050;11.036;2022-12-18T15:09:39;-5.80;99.90
5059;DHT22;2548;52.050;11.036;2022-12-18T15:12:25;-5.80;99.90
5059;DHT22;2548;52.050;11.036;2022-12-18T15:14:53;-5.90;99.90
5059;DHT22;2548;52.050;11.036;2022-12-18T15:17:23;-5.80;99.90
5059;DHT22;2548;52.050;11.036;2022-12-18T15:19:53;-5.80;99.90
5059;DHT22;2548;52.050;11.036;2022-12-18T15:22:25;-5.80;99.90
5059;DHT22;2548;52.050;11.036;2022-12-18T15:24:54;-5.80;99.90
5059;DHT22;2548;52.050;11.036;2022-12-18T15:27:24;-5.80;99.90
5059;DHT22;2548;52.050;11.036;2022-12-18T15:30:15;-5.80;99.90
5059;DHT22;2548;52.050;11.036;2022-12-18T15:32:45;-5.90;99.90
5059;DHT22;2548;52.050;11.036;2022-12-18T15:35:16;-5.80;99.90
5059;DHT22;2548;52.050;11.036;2022-12-18T15:37:44;-5.90;99.90
5059;DHT22;2548;52.050;11.036;2022-12-18T15:40:12;-5.80;99.90
5059;DHT22;2548;52.050;11.036;2022-12-18T15:42:40;-5.90;99.90
5059;DHT22;2548;52.050;11.036;2022-12-18T15:45:25;-5.90;99.90
5059;DHT22;2548;52.050;11.036;2022-12-18T15:47:55;-5.90;99.90
5059;DHT22;2548;52.050;11.036;2022-12-18T15:50:22;-5.90;99.90
5059;DHT22;2548;52.050;11.036;2022-12-18T15:52:52;-5.90;99.90
5059;DHT22;2548;52.050;11.036;2022-12-18T15:55:23;-5.90;99.90
5059;DHT22;2548;52.050;11.036;2022-12-18T15:58:09;-6.00;99.90
5059;DHT22;2548;52.050;11.036;2022-12-18T16:00:38;-6.00;99.90
5059;DHT22;2548;52.050;11.036;2022-12-18T16:03:08;-5.90;99.90
5059;DHT22;2548;52.050;11.036;2022-12-18T16:05:37;-6.00;99.90
5059;DHT22;2548;52.050;11.036;2022-12-18T16:08:06;-6.00;99.90
5059;DHT22;2548;52.050;11.036;2022-12-18T16:10:35;-6.00;99.90
5059;DHT22;2548;52.050;11.036;2022-12-18T16:13:03;-6.00;99.90
5059;DHT22;2548;52.050;11.036;2022-12-18T16:15:30;-6.00;99.90
5059;DHT22;2548;52.050;11.036;2022-12-18T16:17:58;-6.00;99.90
5059;DHT22;2548;52.050;11.036;2022-12-18T16:20:27;-6.00;99.90